CEFAS Endeavour — VQHF3 — position and weather

sailwx.info

Track history (hours):
 
Tides and Currents Weather Stations Pressure Air Temp Water Temp Dewpoint Dewpoint Depression Visibility Wind Speed Wind Dir Waves Ship Positions

Oceanographic research ship CEFAS Endeavour (UK)

Detailed information on ship capabilities available from University of Delaware's Ocean Information Center.

Last reported at 2017-Feb-28 05:24 UTC. Time now 2017-Feb-28 05:37 UTC.
Position N 50°12' W 004°51'.

Length 74 m; draft 5.2 m.

Type: Ship. MMSI: 235005270.

Date/timePositionNaut miles runAvg speedWind from/ knotsBaromVisibWave heightAir tempDewpointWater temp
2017-Feb-28 05:24N 50°12' W 004°51'3 3.4
2017-Feb-28 04:33N 50°09' W 004°54'2 2.4
2017-Feb-28 03:33N 50°07' W 004°56'4 3.5
2017-Feb-28 02:33N 50°10' W 004°53'0 0.4
2017-Feb-28 01:33N 50°10' W 004°52'3 2.2
2017-Feb-28 00:24N 50°08' W 004°53'6 6.4
2017-Feb-27 23:32N 50°08' W 004°45'9 9.3
2017-Feb-27 22:33N 50°09' W 004°31'8 8.2
2017-Feb-27 21:33N 50°09' W 004°18'7 7.1
2017-Feb-27 20:34N 50°09' W 004°07'7 6.8
2017-Feb-27 19:28N 50°10' W 003°55'6 5.8
2017-Feb-27 18:29N 50°10' W 003°46'5 5.1
2017-Feb-27 17:33N 50°10' W 003°39'7 6.8
2017-Feb-27 16:33N 50°16' W 003°32'1110.7
2017-Feb-27 15:33N 50°24' W 003°22'1111.0
2017-Feb-27 14:33N 50°25' W 003°05'1110.7
2017-Feb-27 13:33N 50°26' W 002°48'35 8.8
2017-Feb-27 09:33N 50°34' W 001°54'7 7.1
2017-Feb-27 08:33N 50°37' W 001°44'1 1.0
2017-Feb-27 07:33N 50°38' W 001°43'0 0.3
2017-Feb-27 06:33N 50°38' W 001°43'3 3.5
2017-Feb-27 05:33N 50°35' W 001°46'1 0.7
2017-Feb-27 04:31N 50°36' W 001°45'3 3.1
2017-Feb-27 03:33N 50°37' W 001°41'6 5.7
2017-Feb-27 02:33N 50°35' W 001°32'26 5.0
2017-Feb-26 21:25N 50°39' W 000°52'3 3.3
2017-Feb-26 20:33N 50°39' W 000°47'7 7.4
2017-Feb-26 19:34N 50°37' W 000°36'8 8.5
2017-Feb-26 18:33N 50°37' W 000°23'10 9.9
2017-Feb-26 17:34N 50°37' W 000°07'1211.4
2017-Feb-26 16:30N 50°39' E 000°12'1212.2
2017-Feb-26 15:33N 50°39' E 000°30'1110.9
2017-Feb-26 14:33N 50°45' E 000°45'0 0.3
2017-Feb-26 13:33N 50°45' E 000°45'1 1.1
2017-Feb-26 12:33N 50°46' E 000°47'3 2.8
2017-Feb-26 11:33N 50°44' E 000°43'0 0.3
2017-Feb-26 10:32N 50°45' E 000°43'1 1.1
2017-Feb-26 09:33N 50°45' E 000°45'1 0.9
2017-Feb-26 08:33N 50°45' E 000°46'0 0.4
2017-Feb-26 07:31N 50°45' E 000°46'4 4.4
2017-Feb-26 06:33N 50°48' E 000°51'14 4.8
2017-Feb-26 03:33N 50°60' E 001°05'1 0.5
2017-Feb-26 01:28N 51°01' E 001°06'2 1.7
2017-Feb-26 00:07N 50°59' E 001°04'2 3.2
2017-Feb-25 23:28N 51°00' E 001°06'4 1.8
2017-Feb-25 21:19N 50°57' E 001°02'7 5.6
2017-Feb-25 20:04N 50°58' E 001°13'3 5.6
2017-Feb-25 19:31N 50°56' E 001°17'1111.5
2017-Feb-25 18:33N 51°05' E 001°28'1111.3
2017-Feb-25 17:33N 51°14' E 001°38'1111.4
2017-Feb-25 16:33N 51°25' E 001°44'1111.1
2017-Feb-25 15:33N 51°34' E 001°35'0 0.4
2017-Feb-25 14:33N 51°34' E 001°35'8 7.9
2017-Feb-25 13:33N 51°40' E 001°44'9 9.5
2017-Feb-25 12:33N 51°49' E 001°43'9 9.0
2017-Feb-25 11:33N 51°46' E 001°29'10 9.6
2017-Feb-25 10:33N 51°40' E 001°17'13 9.1
2017-Feb-25 09:09N 51°32' E 001°01'1 1.8
2017-Feb-25 08:29N 51°32' E 001°03'1 1.0
2017-Feb-25 07:33N 51°32' E 001°02'1 0.5
2017-Feb-25 06:32N 51°32' E 001°01'5 5.1
2017-Feb-25 05:32N 51°34' E 001°08'5 5.1
2017-Feb-25 04:33N 51°38' E 001°14'6 5.5
2017-Feb-25 03:33N 51°42' E 001°21'6 6.1
2017-Feb-25 02:33N 51°46' E 001°28'6 5.8
2017-Feb-25 01:33N 51°49' E 001°35'6 5.5
2017-Feb-25 00:33N 51°53' E 001°42'6 5.6
2017-Feb-24 23:33N 51°57' E 001°47'6 5.9
2017-Feb-24 22:33N 51°60' E 001°56'7 6.7
2017-Feb-24 21:34N 51°59' E 002°07'3 2.6
2017-Feb-24 20:33N 51°57' E 002°07'0 0.4
2017-Feb-24 19:33N 51°57' E 002°07'4 3.7
2017-Feb-24 18:34N 52°01' E 002°07'5911.8
2017-Feb-24 13:33N 52°59' E 001°46'1010.2
2017-Feb-24 12:32N 53°07' E 001°35'74 4.5
2017-Feb-23 20:05N 54°03' E 000°12'611.0
2017-Feb-23 19:33N 54°07' E 000°05'1111.1
2017-Feb-23 18:33N 54°15' W 000°08'7 6.8
2017-Feb-23 17:34N 54°20' W 000°16'7 6.6
2017-Feb-23 16:33N 54°15' W 000°08'8 7.7
2017-Feb-23 15:33N 54°09' E 000°01'73 5.4
2017-Feb-23 02:04N 53°06' E 001°02'4 7.7
2017-Feb-23 01:33N 53°05' E 001°09'8 7.7
2017-Feb-23 00:33N 53°01' E 001°20'9 9.4
2017-Feb-22 23:33N 52°54' E 001°31'9 8.8
2017-Feb-22 22:33N 52°48' E 001°40'10 8.1
2017-Feb-22 21:17N 52°38' E 001°46'1 1.0
2017-Feb-22 20:33N 52°37' E 001°46'3 2.8
2017-Feb-22 19:33N 52°34' E 001°46'4 3.5
2017-Feb-22 18:32N 52°31' E 001°47'3 2.1
2017-Feb-22 17:18N 52°28' E 001°45'0 0.0
2017-Feb-22 16:33N 52°28' E 001°45'0 0.0
2017-Feb-22 15:33N 52°28' E 001°45'0 0.0
2017-Feb-22 14:33N 52°28' E 001°45'0 0.0
2017-Feb-22 13:33N 52°28' E 001°45'0 0.0
2017-Feb-22 12:33N 52°28' E 001°45'0 0.0
2017-Feb-22 11:33N 52°28' E 001°45'0 0.0
2017-Feb-22 10:33N 52°28' E 001°45'0 0.0
2017-Feb-22 09:27N 52°28' E 001°45'0 0.0
2017-Feb-22 08:33N 52°28' E 001°45'0 0.0
2017-Feb-22 07:27N 52°28' E 001°45'0 0.0
2017-Feb-22 06:33N 52°28' E 001°45'0 0.0
2017-Feb-22 05:33N 52°28' E 001°45'0 0.0
2017-Feb-22 04:33N 52°28' E 001°45'0 0.0
2017-Feb-22 03:27N 52°28' E 001°45'0 0.0
2017-Feb-22 02:27N 52°28' E 001°45'0 0.0
2017-Feb-22 01:33N 52°28' E 001°45'0 0.0
2017-Feb-22 00:33N 52°28' E 001°45'0 0.0
2017-Feb-21 23:15N 52°28' E 001°45'0 0.0
2017-Feb-21 22:33N 52°28' E 001°45'0 0.0
2017-Feb-21 21:33N 52°28' E 001°45'0 0.0
2017-Feb-21 20:30N 52°28' E 001°45'0 0.0
2017-Feb-21 19:33N 52°28' E 001°45'0 0.0
2017-Feb-21 18:33N 52°28' E 001°45'0 0.0
2017-Feb-21 17:33N 52°28' E 001°45'0 0.0
2017-Feb-21 16:33N 52°28' E 001°45'0 0.0
2017-Feb-21 15:15N 52°28' E 001°45'0 0.0
2017-Feb-21 14:33N 52°28' E 001°45'0 0.0
2017-Feb-21 13:33N 52°28' E 001°45'0 0.0
2017-Feb-21 12:30N 52°28' E 001°45'0 0.0
2017-Feb-21 11:33N 52°28' E 001°45'0 0.0
2017-Feb-21 10:33N 52°28' E 001°45'0 0.0
2017-Feb-21 09:30N 52°28' E 001°45'0 0.0
2017-Feb-21 08:33N 52°28' E 001°45'0 0.0
2017-Feb-21 07:30N 52°28' E 001°45'0 0.0
2017-Feb-21 06:33N 52°28' E 001°45'0 0.0
2017-Feb-21 05:33N 52°28' E 001°45'0 0.0
2017-Feb-21 04:21N 52°28' E 001°45'0 0.0
2017-Feb-21 03:33N 52°28' E 001°45'0 0.0
2017-Feb-21 02:27N 52°28' E 001°45'0 0.0
2017-Feb-21 01:33N 52°28' E 001°45'0 0.0
2017-Feb-21 00:33N 52°28' E 001°45'0 0.0
2017-Feb-20 23:27N 52°28' E 001°45'0 0.0
2017-Feb-20 22:33N 52°28' E 001°45'0 0.0
2017-Feb-20 21:24N 52°28' E 001°45'0 0.0
2017-Feb-20 20:30N 52°28' E 001°45'0 0.0
2017-Feb-20 19:33N 52°28' E 001°45'0 0.0
2017-Feb-20 18:27N 52°28' E 001°45'0 0.0
2017-Feb-20 17:33N 52°28' E 001°45'0 0.0
2017-Feb-20 16:24N 52°28' E 001°45'0 0.0
2017-Feb-20 15:33N 52°28' E 001°45'0 0.0
2017-Feb-20 14:33N 52°28' E 001°45'0 0.0
2017-Feb-20 13:33N 52°28' E 001°45'0 0.0
2017-Feb-20 12:33N 52°28' E 001°45'0 0.0
2017-Feb-20 11:33N 52°28' E 001°45'0 0.0
2017-Feb-20 10:33N 52°28' E 001°45'0 0.0
2017-Feb-20 09:33N 52°28' E 001°45'0 0.0
2017-Feb-20 08:33N 52°28' E 001°45'0 0.0
2017-Feb-20 07:18N 52°28' E 001°45'0 0.0
2017-Feb-20 06:33N 52°28' E 001°45'0 0.0
2017-Feb-20 05:33N 52°28' E 001°45'0 0.0
2017-Feb-20 04:33N 52°28' E 001°45'0 0.0
2017-Feb-20 03:33N 52°28' E 001°45'0 0.0
2017-Feb-20 02:30N 52°28' E 001°45'0 0.0
2017-Feb-20 01:33N 52°28' E 001°45'0 0.0
2017-Feb-20 00:33N 52°28' E 001°45'0 0.0
2017-Feb-19 23:33N 52°28' E 001°45'0 0.0
2017-Feb-19 22:30N 52°28' E 001°45'0 0.0
2017-Feb-19 21:33N 52°28' E 001°45'0 0.0
2017-Feb-19 20:33N 52°28' E 001°45'0 0.0
2017-Feb-19 19:27N 52°28' E 001°45'0 0.0
2017-Feb-19 18:33N 52°28' E 001°45'0 0.0
2017-Feb-19 17:33N 52°28' E 001°45'0 0.0
2017-Feb-19 16:30N 52°28' E 001°45'  
Track history (hours):
 
Tides and Currents Weather Stations Pressure Air Temp Water Temp Dewpoint Dewpoint Depression Visibility Wind Speed Wind Dir Waves Ship Positions

Oceanographic research ship CEFAS Endeavour (UK)

Detailed information on ship capabilities available from University of Delaware's Ocean Information Center.

Last reported at 2017-Feb-28 05:24 UTC. Time now 2017-Feb-28 05:37 UTC.
Position N 50°12' W 004°51'.

Length 74 m; draft 5.2 m.

Type: Ship. MMSI: 235005270.

Date/timePositionNaut miles runAvg speedWind from/ knotsBaromVisibWave heightAir tempDewpointWater temp
2017-Feb-28 05:24N 50°12' W 004°51'3 3.4
2017-Feb-28 04:33N 50°09' W 004°54'2 2.4
2017-Feb-28 03:33N 50°07' W 004°56'4 3.5
2017-Feb-28 02:33N 50°10' W 004°53'0 0.4
2017-Feb-28 01:33N 50°10' W 004°52'3 2.2
2017-Feb-28 00:24N 50°08' W 004°53'6 6.4
2017-Feb-27 23:32N 50°08' W 004°45'9 9.3
2017-Feb-27 22:33N 50°09' W 004°31'8 8.2
2017-Feb-27 21:33N 50°09' W 004°18'7 7.1
2017-Feb-27 20:34N 50°09' W 004°07'7 6.8
2017-Feb-27 19:28N 50°10' W 003°55'6 5.8
2017-Feb-27 18:29N 50°10' W 003°46'5 5.1
2017-Feb-27 17:33N 50°10' W 003°39'7 6.8
2017-Feb-27 16:33N 50°16' W 003°32'1110.7
2017-Feb-27 15:33N 50°24' W 003°22'1111.0
2017-Feb-27 14:33N 50°25' W 003°05'1110.7
2017-Feb-27 13:33N 50°26' W 002°48'35 8.8
2017-Feb-27 09:33N 50°34' W 001°54'7 7.1
2017-Feb-27 08:33N 50°37' W 001°44'1 1.0
2017-Feb-27 07:33N 50°38' W 001°43'0 0.3
2017-Feb-27 06:33N 50°38' W 001°43'3 3.5
2017-Feb-27 05:33N 50°35' W 001°46'1 0.7
2017-Feb-27 04:31N 50°36' W 001°45'3 3.1
2017-Feb-27 03:33N 50°37' W 001°41'6 5.7
2017-Feb-27 02:33N 50°35' W 001°32'26 5.0
2017-Feb-26 21:25N 50°39' W 000°52'3 3.3
2017-Feb-26 20:33N 50°39' W 000°47'7 7.4
2017-Feb-26 19:34N 50°37' W 000°36'8 8.5
2017-Feb-26 18:33N 50°37' W 000°23'10 9.9
2017-Feb-26 17:34N 50°37' W 000°07'1211.4
2017-Feb-26 16:30N 50°39' E 000°12'1212.2
2017-Feb-26 15:33N 50°39' E 000°30'1110.9
2017-Feb-26 14:33N 50°45' E 000°45'0 0.3
2017-Feb-26 13:33N 50°45' E 000°45'1 1.1
2017-Feb-26 12:33N 50°46' E 000°47'3 2.8
2017-Feb-26 11:33N 50°44' E 000°43'0 0.3
2017-Feb-26 10:32N 50°45' E 000°43'1 1.1
2017-Feb-26 09:33N 50°45' E 000°45'1 0.9
2017-Feb-26 08:33N 50°45' E 000°46'0 0.4
2017-Feb-26 07:31N 50°45' E 000°46'4 4.4
2017-Feb-26 06:33N 50°48' E 000°51'14 4.8
2017-Feb-26 03:33N 50°60' E 001°05'1 0.5
2017-Feb-26 01:28N 51°01' E 001°06'2 1.7
2017-Feb-26 00:07N 50°59' E 001°04'2 3.2
2017-Feb-25 23:28N 51°00' E 001°06'4 1.8
2017-Feb-25 21:19N 50°57' E 001°02'7 5.6
2017-Feb-25 20:04N 50°58' E 001°13'3 5.6
2017-Feb-25 19:31N 50°56' E 001°17'1111.5
2017-Feb-25 18:33N 51°05' E 001°28'1111.3
2017-Feb-25 17:33N 51°14' E 001°38'1111.4
2017-Feb-25 16:33N 51°25' E 001°44'1111.1
2017-Feb-25 15:33N 51°34' E 001°35'0 0.4
2017-Feb-25 14:33N 51°34' E 001°35'8 7.9
2017-Feb-25 13:33N 51°40' E 001°44'9 9.5
2017-Feb-25 12:33N 51°49' E 001°43'9 9.0
2017-Feb-25 11:33N 51°46' E 001°29'10 9.6
2017-Feb-25 10:33N 51°40' E 001°17'13 9.1
2017-Feb-25 09:09N 51°32' E 001°01'1 1.8
2017-Feb-25 08:29N 51°32' E 001°03'1 1.0
2017-Feb-25 07:33N 51°32' E 001°02'1 0.5
2017-Feb-25 06:32N 51°32' E 001°01'5 5.1
2017-Feb-25 05:32N 51°34' E 001°08'5 5.1
2017-Feb-25 04:33N 51°38' E 001°14'6 5.5
2017-Feb-25 03:33N 51°42' E 001°21'6 6.1
2017-Feb-25 02:33N 51°46' E 001°28'6 5.8
2017-Feb-25 01:33N 51°49' E 001°35'6 5.5
2017-Feb-25 00:33N 51°53' E 001°42'6 5.6
2017-Feb-24 23:33N 51°57' E 001°47'6 5.9
2017-Feb-24 22:33N 51°60' E 001°56'7 6.7
2017-Feb-24 21:34N 51°59' E 002°07'3 2.6
2017-Feb-24 20:33N 51°57' E 002°07'0 0.4
2017-Feb-24 19:33N 51°57' E 002°07'4 3.7
2017-Feb-24 18:34N 52°01' E 002°07'5911.8
2017-Feb-24 13:33N 52°59' E 001°46'1010.2
2017-Feb-24 12:32N 53°07' E 001°35'74 4.5
2017-Feb-23 20:05N 54°03' E 000°12'611.0
2017-Feb-23 19:33N 54°07' E 000°05'1111.1
2017-Feb-23 18:33N 54°15' W 000°08'7 6.8
2017-Feb-23 17:34N 54°20' W 000°16'7 6.6
2017-Feb-23 16:33N 54°15' W 000°08'8 7.7
2017-Feb-23 15:33N 54°09' E 000°01'73 5.4
2017-Feb-23 02:04N 53°06' E 001°02'4 7.7
2017-Feb-23 01:33N 53°05' E 001°09'8 7.7
2017-Feb-23 00:33N 53°01' E 001°20'9 9.4
2017-Feb-22 23:33N 52°54' E 001°31'9 8.8
2017-Feb-22 22:33N 52°48' E 001°40'10 8.1
2017-Feb-22 21:17N 52°38' E 001°46'1 1.0
2017-Feb-22 20:33N 52°37' E 001°46'3 2.8
2017-Feb-22 19:33N 52°34' E 001°46'4 3.5
2017-Feb-22 18:32N 52°31' E 001°47'3 2.1
2017-Feb-22 17:18N 52°28' E 001°45'0 0.0
2017-Feb-22 16:33N 52°28' E 001°45'0 0.0
2017-Feb-22 15:33N 52°28' E 001°45'0 0.0
2017-Feb-22 14:33N 52°28' E 001°45'0 0.0
2017-Feb-22 13:33N 52°28' E 001°45'0 0.0
2017-Feb-22 12:33N 52°28' E 001°45'0 0.0
2017-Feb-22 11:33N 52°28' E 001°45'0 0.0
2017-Feb-22 10:33N 52°28' E 001°45'0 0.0
2017-Feb-22 09:27N 52°28' E 001°45'0 0.0
2017-Feb-22 08:33N 52°28' E 001°45'0 0.0
2017-Feb-22 07:27N 52°28' E 001°45'0 0.0
2017-Feb-22 06:33N 52°28' E 001°45'0 0.0
2017-Feb-22 05:33N 52°28' E 001°45'0 0.0
2017-Feb-22 04:33N 52°28' E 001°45'0 0.0
2017-Feb-22 03:27N 52°28' E 001°45'0 0.0
2017-Feb-22 02:27N 52°28' E 001°45'0 0.0
2017-Feb-22 01:33N 52°28' E 001°45'0 0.0
2017-Feb-22 00:33N 52°28' E 001°45'0 0.0
2017-Feb-21 23:15N 52°28' E 001°45'0 0.0
2017-Feb-21 22:33N 52°28' E 001°45'0 0.0
2017-Feb-21 21:33N 52°28' E 001°45'0 0.0
2017-Feb-21 20:30N 52°28' E 001°45'0 0.0
2017-Feb-21 19:33N 52°28' E 001°45'0 0.0
2017-Feb-21 18:33N 52°28' E 001°45'0 0.0
2017-Feb-21 17:33N 52°28' E 001°45'0 0.0
2017-Feb-21 16:33N 52°28' E 001°45'0 0.0
2017-Feb-21 15:15N 52°28' E 001°45'0 0.0
2017-Feb-21 14:33N 52°28' E 001°45'0 0.0
2017-Feb-21 13:33N 52°28' E 001°45'0 0.0
2017-Feb-21 12:30N 52°28' E 001°45'0 0.0
2017-Feb-21 11:33N 52°28' E 001°45'0 0.0
2017-Feb-21 10:33N 52°28' E 001°45'0 0.0
2017-Feb-21 09:30N 52°28' E 001°45'0 0.0
2017-Feb-21 08:33N 52°28' E 001°45'0 0.0
2017-Feb-21 07:30N 52°28' E 001°45'0 0.0
2017-Feb-21 06:33N 52°28' E 001°45'0 0.0
2017-Feb-21 05:33N 52°28' E 001°45'0 0.0
2017-Feb-21 04:21N 52°28' E 001°45'0 0.0
2017-Feb-21 03:33N 52°28' E 001°45'0 0.0
2017-Feb-21 02:27N 52°28' E 001°45'0 0.0
2017-Feb-21 01:33N 52°28' E 001°45'0 0.0
2017-Feb-21 00:33N 52°28' E 001°45'0 0.0
2017-Feb-20 23:27N 52°28' E 001°45'0 0.0
2017-Feb-20 22:33N 52°28' E 001°45'0 0.0
2017-Feb-20 21:24N 52°28' E 001°45'0 0.0
2017-Feb-20 20:30N 52°28' E 001°45'0 0.0
2017-Feb-20 19:33N 52°28' E 001°45'0 0.0
2017-Feb-20 18:27N 52°28' E 001°45'0 0.0
2017-Feb-20 17:33N 52°28' E 001°45'0 0.0
2017-Feb-20 16:24N 52°28' E 001°45'0 0.0
2017-Feb-20 15:33N 52°28' E 001°45'0 0.0
2017-Feb-20 14:33N 52°28' E 001°45'0 0.0
2017-Feb-20 13:33N 52°28' E 001°45'0 0.0
2017-Feb-20 12:33N 52°28' E 001°45'0 0.0
2017-Feb-20 11:33N 52°28' E 001°45'0 0.0
2017-Feb-20 10:33N 52°28' E 001°45'0 0.0
2017-Feb-20 09:33N 52°28' E 001°45'0 0.0
2017-Feb-20 08:33N 52°28' E 001°45'0 0.0
2017-Feb-20 07:18N 52°28' E 001°45'0 0.0
2017-Feb-20 06:33N 52°28' E 001°45'0 0.0
2017-Feb-20 05:33N 52°28' E 001°45'0 0.0
2017-Feb-20 04:33N 52°28' E 001°45'0 0.0
2017-Feb-20 03:33N 52°28' E 001°45'0 0.0
2017-Feb-20 02:30N 52°28' E 001°45'0 0.0
2017-Feb-20 01:33N 52°28' E 001°45'0 0.0
2017-Feb-20 00:33N 52°28' E 001°45'0 0.0
2017-Feb-19 23:33N 52°28' E 001°45'0 0.0
2017-Feb-19 22:30N 52°28' E 001°45'0 0.0
2017-Feb-19 21:33N 52°28' E 001°45'0 0.0
2017-Feb-19 20:33N 52°28' E 001°45'0 0.0
2017-Feb-19 19:27N 52°28' E 001°45'0 0.0
2017-Feb-19 18:33N 52°28' E 001°45'0 0.0
2017-Feb-19 17:33N 52°28' E 001°45'0 0.0
2017-Feb-19 16:30N 52°28' E 001°45'  

Dump ship's entire track history